sensor_id;sensor_type;location;lat;lon;timestamp;temperature;humidity
16666;DHT22;8446;50.99880500;6.25021400;2024-02-23T00:00:14;5.90;99.90
16666;DHT22;8446;50.99880500;6.25021400;2024-02-23T00:02:49;6.00;99.90
16666;DHT22;8446;50.99880500;6.25021400;2024-02-23T00:05:21;6.00;99.90
16666;DHT22;8446;50.99880500;6.25021400;2024-02-23T00:07:53;6.00;99.90
16666;DHT22;8446;50.99880500;6.25021400;2024-02-23T00:10:25;6.00;99.90
16666;DHT22;8446;50.99880500;6.25021400;2024-02-23T00:12:57;5.90;99.90
16666;DHT22;8446;50.99880500;6.25021400;2024-02-23T00:15:29;5.90;99.90
16666;DHT22;8446;50.99880500;6.25021400;2024-02-23T00:18:02;5.90;99.90
16666;DHT22;8446;50.99880500;6.25021400;2024-02-23T00:20:34;5.90;99.90
16666;DHT22;8446;50.99880500;6.25021400;2024-02-23T00:23:06;5.80;99.90
16666;DHT22;8446;50.99880500;6.25021400;2024-02-23T00:25:38;5.80;99.90
16666;DHT22;8446;50.99880500;6.25021400;2024-02-23T00:28:10;5.70;99.90
16666;DHT22;8446;50.99880500;6.25021400;2024-02-23T00:30:41;5.70;99.90
16666;DHT22;8446;50.99880500;6.25021400;2024-02-23T00:33:15;5.60;99.90
16666;DHT22;8446;50.99880500;6.25021400;2024-02-23T00:35:46;5.60;99.90
16666;DHT22;8446;50.99880500;6.25021400;2024-02-23T00:38:18;5.70;99.90
16666;DHT22;8446;50.99880500;6.25021400;2024-02-23T00:40:50;5.60;99.90
16666;DHT22;8446;50.99880500;6.25021400;2024-02-23T00:43:22;5.60;99.90
16666;DHT22;8446;50.99880500;6.25021400;2024-02-23T00:45:54;5.50;99.90
16666;DHT22;8446;50.99880500;6.25021400;2024-02-23T00:48:27;5.50;99.90
16666;DHT22;8446;50.99880500;6.25021400;2024-02-23T00:50:59;5.40;99.90
16666;DHT22;8446;50.99880500;6.25021400;2024-02-23T00:53:31;5.40;99.90
16666;DHT22;8446;50.99880500;6.25021400;2024-02-23T00:56:03;5.40;99.90
16666;DHT22;8446;50.99880500;6.25021400;2024-02-23T00:58:35;5.30;99.90
16666;DHT22;8446;50.99880500;6.25021400;2024-02-23T01:01:07;5.30;99.90
16666;DHT22;8446;50.99880500;6.25021400;2024-02-23T01:03:41;5.40;99.90
16666;DHT22;8446;50.99880500;6.25021400;2024-02-23T01:06:12;5.50;99.90
16666;DHT22;8446;50.99880500;6.25021400;2024-02-23T01:08:44;5.50;99.90
16666;DHT22;8446;50.99880500;6.25021400;2024-02-23T01:11:17;5.50;99.90
16666;DHT22;8446;50.99880500;6.25021400;2024-02-23T01:13:49;5.60;99.90
16666;DHT22;8446;50.99880500;6.25021400;2024-02-23T01:16:21;5.60;99.90
16666;DHT22;8446;50.99880500;6.25021400;2024-02-23T01:18:54;5.60;99.90
16666;DHT22;8446;50.99880500;6.25021400;2024-02-23T01:21:26;5.60;99.90
16666;DHT22;8446;50.99880500;6.25021400;2024-02-23T01:23:58;5.50;99.90
16666;DHT22;8446;50.99880500;6.25021400;2024-02-23T01:26:31;5.50;99.90
16666;DHT22;8446;50.99880500;6.25021400;2024-02-23T01:29:03;5.50;99.90
16666;DHT22;8446;50.99880500;6.25021400;2024-02-23T01:31:35;5.50;99.90
16666;DHT22;8446;50.99880500;6.25021400;2024-02-23T01:34:08;5.40;99.90
16666;DHT22;8446;50.99880500;6.25021400;2024-02-23T01:36:40;5.40;99.90
16666;DHT22;8446;50.99880500;6.25021400;2024-02-23T01:39:12;5.30;99.90
16666;DHT22;8446;50.99880500;6.25021400;2024-02-23T01:41:48;5.30;99.90
16666;DHT22;8446;50.99880500;6.25021400;2024-02-23T01:44:20;5.30;99.90
16666;DHT22;8446;50.99880500;6.25021400;2024-02-23T01:46:52;5.30;99.90
16666;DHT22;8446;50.99880500;6.25021400;2024-02-23T01:49:25;5.30;99.90
16666;DHT22;8446;50.99880500;6.25021400;2024-02-23T01:52:00;5.30;99.90
16666;DHT22;8446;50.99880500;6.25021400;2024-02-23T01:54:33;5.20;99.90
16666;DHT22;8446;50.99880500;6.25021400;2024-02-23T01:57:05;5.20;99.90
16666;DHT22;8446;50.99880500;6.25021400;2024-02-23T01:59:38;5.30;99.90
16666;DHT22;8446;50.99880500;6.25021400;2024-02-23T02:02:11;5.20;99.90
16666;DHT22;8446;50.99880500;6.25021400;2024-02-23T02:04:44;5.20;99.90
16666;DHT22;8446;50.99880500;6.25021400;2024-02-23T02:07:16;5.20;99.90
16666;DHT22;8446;50.99880500;6.25021400;2024-02-23T02:09:50;5.20;99.90
16666;DHT22;8446;50.99880500;6.25021400;2024-02-23T02:12:28;5.20;99.90
16666;DHT22;8446;50.99880500;6.25021400;2024-02-23T02:15:00;5.20;99.90
16666;DHT22;8446;50.99880500;6.25021400;2024-02-23T02:17:32;5.20;99.90
16666;DHT22;8446;50.99880500;6.25021400;2024-02-23T02:20:07;5.10;99.90
16666;DHT22;8446;50.99880500;6.25021400;2024-02-23T02:22:42;5.10;99.90
16666;DHT22;8446;50.99880500;6.25021400;2024-02-23T02:25:14;5.20;99.90
16666;DHT22;8446;50.99880500;6.25021400;2024-02-23T02:27:46;5.20;99.90
16666;DHT22;8446;50.99880500;6.25021400;2024-02-23T02:30:18;5.20;99.90
16666;DHT22;8446;50.99880500;6.25021400;2024-02-23T02:32:50;5.20;99.90
16666;DHT22;8446;50.99880500;6.25021400;2024-02-23T02:35:24;5.20;99.90
16666;DHT22;8446;50.99880500;6.25021400;2024-02-23T02:37:56;5.30;99.90
16666;DHT22;8446;50.99880500;6.25021400;2024-02-23T02:40:28;5.30;99.90
16666;DHT22;8446;50.99880500;6.25021400;2024-02-23T02:43:00;5.30;99.90
16666;DHT22;8446;50.99880500;6.25021400;2024-02-23T02:45:32;5.40;99.90
16666;DHT22;8446;50.99880500;6.25021400;2024-02-23T02:48:04;5.40;99.90
16666;DHT22;8446;50.99880500;6.25021400;2024-02-23T02:50:37;5.40;99.90
16666;DHT22;8446;50.99880500;6.25021400;2024-02-23T02:53:10;5.40;99.90
16666;DHT22;8446;50.99880500;6.25021400;2024-02-23T02:55:42;5.40;99.90
16666;DHT22;8446;50.99880500;6.25021400;2024-02-23T02:58:14;5.50;99.90
16666;DHT22;8446;50.99880500;6.25021400;2024-02-23T03:00:46;5.50;99.90
16666;DHT22;8446;50.99880500;6.25021400;2024-02-23T03:03:18;5.50;99.90
16666;DHT22;8446;50.99880500;6.25021400;2024-02-23T03:05:51;5.50;99.90
16666;DHT22;8446;50.99880500;6.25021400;2024-02-23T03:08:23;5.50;99.90
16666;DHT22;8446;50.99880500;6.25021400;2024-02-23T03:10:55;5.50;99.90
16666;DHT22;8446;50.99880500;6.25021400;2024-02-23T03:13:27;5.50;99.90
16666;DHT22;8446;50.99880500;6.25021400;2024-02-23T03:15:59;5.50;99.90
16666;DHT22;8446;50.99880500;6.25021400;2024-02-23T03:18:31;5.50;99.90
16666;DHT22;8446;50.99880500;6.25021400;2024-02-23T03:21:04;5.50;99.90
16666;DHT22;8446;50.99880500;6.25021400;2024-02-23T03:23:37;5.40;99.90
16666;DHT22;8446;50.99880500;6.25021400;2024-02-23T03:26:09;5.40;99.90
16666;DHT22;8446;50.99880500;6.25021400;2024-02-23T03:28:40;5.30;99.90
16666;DHT22;8446;50.99880500;6.25021400;2024-02-23T03:31:12;5.30;99.90
16666;DHT22;8446;50.99880500;6.25021400;2024-02-23T03:33:44;5.20;99.90
16666;DHT22;8446;50.99880500;6.25021400;2024-02-23T03:36:18;5.30;99.90
16666;DHT22;8446;50.99880500;6.25021400;2024-02-23T03:38:49;5.30;99.90
16666;DHT22;8446;50.99880500;6.25021400;2024-02-23T03:41:22;5.30;99.90
16666;DHT22;8446;50.99880500;6.25021400;2024-02-23T03:43:53;5.30;99.90
16666;DHT22;8446;50.99880500;6.25021400;2024-02-23T03:46:25;5.30;99.90
16666;DHT22;8446;50.99880500;6.25021400;2024-02-23T03:48:57;5.30;99.90
16666;DHT22;8446;50.99880500;6.25021400;2024-02-23T03:51:30;5.40;99.90
16666;DHT22;8446;50.99880500;6.25021400;2024-02-23T03:54:03;5.30;99.90
16666;DHT22;8446;50.99880500;6.25021400;2024-02-23T03:56:39;5.30;99.90
16666;DHT22;8446;50.99880500;6.25021400;2024-02-23T03:59:11;5.40;99.90
16666;DHT22;8446;50.99880500;6.25021400;2024-02-23T04:01:43;5.30;99.90
16666;DHT22;8446;50.99880500;6.25021400;2024-02-23T04:04:15;5.20;99.90
16666;DHT22;8446;50.99880500;6.25021400;2024-02-23T04:06:48;5.20;99.90
16666;DHT22;8446;50.99880500;6.25021400;2024-02-23T04:09:20;5.30;99.90
16666;DHT22;8446;50.99880500;6.25021400;2024-02-23T04:11:53;5.30;99.90
16666;DHT22;8446;50.99880500;6.25021400;2024-02-23T04:14:25;5.40;99.90
16666;DHT22;8446;50.99880500;6.25021400;2024-02-23T04:16:57;5.40;99.90
16666;DHT22;8446;50.99880500;6.25021400;2024-02-23T04:19:29;5.50;99.90
16666;DHT22;8446;50.99880500;6.25021400;2024-02-23T04:22:03;5.60;99.90
16666;DHT22;8446;50.99880500;6.25021400;2024-02-23T04:24:36;5.50;99.90
16666;DHT22;8446;50.99880500;6.25021400;2024-02-23T04:27:08;5.60;99.90
16666;DHT22;8446;50.99880500;6.25021400;2024-02-23T04:29:40;5.60;99.90
16666;DHT22;8446;50.99880500;6.25021400;2024-02-23T04:32:13;5.70;99.90
16666;DHT22;8446;50.99880500;6.25021400;2024-02-23T04:34:45;5.70;99.90
16666;DHT22;8446;50.99880500;6.25021400;2024-02-23T04:37:18;5.70;99.90
16666;DHT22;8446;50.99880500;6.25021400;2024-02-23T04:39:50;5.70;99.90
16666;DHT22;8446;50.99880500;6.25021400;2024-02-23T04:42:22;5.70;99.90
16666;DHT22;8446;50.99880500;6.25021400;2024-02-23T04:44:54;5.60;99.90
16666;DHT22;8446;50.99880500;6.25021400;2024-02-23T04:47:26;5.50;99.90
16666;DHT22;8446;50.99880500;6.25021400;2024-02-23T04:49:58;5.60;99.90
16666;DHT22;8446;50.99880500;6.25021400;2024-02-23T04:52:32;5.60;99.90
16666;DHT22;8446;50.99880500;6.25021400;2024-02-23T04:55:05;5.60;99.90
16666;DHT22;8446;50.99880500;6.25021400;2024-02-23T04:57:37;5.60;99.90
16666;DHT22;8446;50.99880500;6.25021400;2024-02-23T05:00:10;5.60;99.90
16666;DHT22;8446;50.99880500;6.25021400;2024-02-23T05:02:42;5.60;99.90
16666;DHT22;8446;50.99880500;6.25021400;2024-02-23T05:05:14;5.60;99.90
16666;DHT22;8446;50.99880500;6.25021400;2024-02-23T05:07:47;5.50;99.90
16666;DHT22;8446;50.99880500;6.25021400;2024-02-23T05:10:19;5.60;99.90
16666;DHT22;8446;50.99880500;6.25021400;2024-02-23T05:12:51;5.60;99.90
16666;DHT22;8446;50.99880500;6.25021400;2024-02-23T05:15:23;5.60;99.90
16666;DHT22;8446;50.99880500;6.25021400;2024-02-23T05:17:55;5.70;99.90
16666;DHT22;8446;50.99880500;6.25021400;2024-02-23T05:20:27;5.70;99.90
16666;DHT22;8446;50.99880500;6.25021400;2024-02-23T05:23:00;5.60;99.90
16666;DHT22;8446;50.99880500;6.25021400;2024-02-23T05:25:32;5.60;99.90
16666;DHT22;8446;50.99880500;6.25021400;2024-02-23T05:28:04;5.80;99.90
16666;DHT22;8446;50.99880500;6.25021400;2024-02-23T05:30:36;5.80;99.90
16666;DHT22;8446;50.99880500;6.25021400;2024-02-23T05:33:08;5.70;99.90
16666;DHT22;8446;50.99880500;6.25021400;2024-02-23T05:35:40;5.80;99.90
16666;DHT22;8446;50.99880500;6.25021400;2024-02-23T05:38:13;5.80;99.90
16666;DHT22;8446;50.99880500;6.25021400;2024-02-23T05:40:45;5.80;99.90
16666;DHT22;8446;50.99880500;6.25021400;2024-02-23T05:43:18;5.70;99.90
16666;DHT22;8446;50.99880500;6.25021400;2024-02-23T05:45:51;5.70;99.90
16666;DHT22;8446;50.99880500;6.25021400;2024-02-23T05:48:22;5.70;99.90
16666;DHT22;8446;50.99880500;6.25021400;2024-02-23T05:50:54;5.70;99.90
16666;DHT22;8446;50.99880500;6.25021400;2024-02-23T05:53:27;5.70;99.90
16666;DHT22;8446;50.99880500;6.25021400;2024-02-23T05:56:03;5.70;99.90
16666;DHT22;8446;50.99880500;6.25021400;2024-02-23T05:58:35;5.70;99.90
16666;DHT22;8446;50.99880500;6.25021400;2024-02-23T06:01:07;5.70;99.90
16666;DHT22;8446;50.99880500;6.25021400;2024-02-23T06:03:39;5.70;99.90
16666;DHT22;8446;50.99880500;6.25021400;2024-02-23T06:06:11;5.70;99.90
16666;DHT22;8446;50.99880500;6.25021400;2024-02-23T06:08:44;5.60;99.90
16666;DHT22;8446;50.99880500;6.25021400;2024-02-23T06:11:16;5.70;99.90
16666;DHT22;8446;50.99880500;6.25021400;2024-02-23T06:13:49;5.70;99.90
16666;DHT22;8446;50.99880500;6.25021400;2024-02-23T06:16:21;5.60;99.90
16666;DHT22;8446;50.99880500;6.25021400;2024-02-23T06:18:53;5.60;99.90
16666;DHT22;8446;50.99880500;6.25021400;2024-02-23T06:21:25;5.70;99.90
16666;DHT22;8446;50.99880500;6.25021400;2024-02-23T06:23:58;5.60;99.90
16666;DHT22;8446;50.99880500;6.25021400;2024-02-23T06:26:30;5.70;99.90
16666;DHT22;8446;50.99880500;6.25021400;2024-02-23T06:29:02;5.70;99.90
16666;DHT22;8446;50.99880500;6.25021400;2024-02-23T06:31:34;5.60;99.90
16666;DHT22;8446;50.99880500;6.25021400;2024-02-23T06:34:06;5.50;99.90
16666;DHT22;8446;50.99880500;6.25021400;2024-02-23T06:36:37;5.60;99.90
16666;DHT22;8446;50.99880500;6.25021400;2024-02-23T06:39:11;5.60;99.90
16666;DHT22;8446;50.99880500;6.25021400;2024-02-23T06:41:43;5.30;99.90
16666;DHT22;8446;50.99880500;6.25021400;2024-02-23T06:44:14;5.20;99.90
16666;DHT22;8446;50.99880500;6.25021400;2024-02-23T06:46:46;5.40;99.90
16666;DHT22;8446;50.99880500;6.25021400;2024-02-23T06:49:18;5.40;99.90
16666;DHT22;8446;50.99880500;6.25021400;2024-02-23T06:51:50;5.30;99.90
16666;DHT22;8446;50.99880500;6.25021400;2024-02-23T06:54:23;5.40;99.90
16666;DHT22;8446;50.99880500;6.25021400;2024-02-23T06:56:54;5.40;99.90
16666;DHT22;8446;50.99880500;6.25021400;2024-02-23T06:59:26;5.40;99.90
16666;DHT22;8446;50.99880500;6.25021400;2024-02-23T07:01:58;5.50;99.90
16666;DHT22;8446;50.99880500;6.25021400;2024-02-23T07:04:30;5.50;99.90
16666;DHT22;8446;50.99880500;6.25021400;2024-02-23T07:07:03;5.50;99.90
16666;DHT22;8446;50.99880500;6.25021400;2024-02-23T07:09:39;5.50;99.90
16666;DHT22;8446;50.99880500;6.25021400;2024-02-23T07:12:10;5.50;99.90
16666;DHT22;8446;50.99880500;6.25021400;2024-02-23T07:14:44;5.50;99.90
16666;DHT22;8446;50.99880500;6.25021400;2024-02-23T07:17:16;5.60;99.90
16666;DHT22;8446;50.99880500;6.25021400;2024-02-23T07:19:49;5.50;99.90
16666;DHT22;8446;50.99880500;6.25021400;2024-02-23T07:22:23;5.50;99.90
16666;DHT22;8446;50.99880500;6.25021400;2024-02-23T07:24:56;5.50;99.90
16666;DHT22;8446;50.99880500;6.25021400;2024-02-23T07:27:29;5.60;99.90
16666;DHT22;8446;50.99880500;6.25021400;2024-02-23T07:30:00;5.60;99.90
16666;DHT22;8446;50.99880500;6.25021400;2024-02-23T07:32:33;5.60;99.90
16666;DHT22;8446;50.99880500;6.25021400;2024-02-23T07:35:05;5.60;99.90
16666;DHT22;8446;50.99880500;6.25021400;2024-02-23T07:37:37;5.70;99.90
16666;DHT22;8446;50.99880500;6.25021400;2024-02-23T07:40:11;5.60;99.90
16666;DHT22;8446;50.99880500;6.25021400;2024-02-23T07:42:43;5.60;99.90
16666;DHT22;8446;50.99880500;6.25021400;2024-02-23T07:45:15;5.70;99.90
16666;DHT22;8446;50.99880500;6.25021400;2024-02-23T07:47:46;5.70;99.90
16666;DHT22;8446;50.99880500;6.25021400;2024-02-23T07:50:18;5.70;99.90
16666;DHT22;8446;50.99880500;6.25021400;2024-02-23T07:52:50;5.80;99.90
16666;DHT22;8446;50.99880500;6.25021400;2024-02-23T07:55:23;5.80;99.90
16666;DHT22;8446;50.99880500;6.25021400;2024-02-23T07:57:55;5.80;99.90
16666;DHT22;8446;50.99880500;6.25021400;2024-02-23T08:00:31;5.80;99.90
16666;DHT22;8446;50.99880500;6.25021400;2024-02-23T08:03:05;5.90;99.90
16666;DHT22;8446;50.99880500;6.25021400;2024-02-23T08:05:38;5.90;99.90
16666;DHT22;8446;50.99880500;6.25021400;2024-02-23T08:08:10;5.80;99.90
16666;DHT22;8446;50.99880500;6.25021400;2024-02-23T08:10:44;5.80;99.90
16666;DHT22;8446;50.99880500;6.25021400;2024-02-23T08:13:15;5.90;99.90
16666;DHT22;8446;50.99880500;6.25021400;2024-02-23T08:15:48;5.90;99.90
16666;DHT22;8446;50.99880500;6.25021400;2024-02-23T08:18:20;6.00;99.90
16666;DHT22;8446;50.99880500;6.25021400;2024-02-23T08:20:53;6.20;99.90
16666;DHT22;8446;50.99880500;6.25021400;2024-02-23T08:23:24;6.30;99.90
16666;DHT22;8446;50.99880500;6.25021400;2024-02-23T08:25:58;6.50;99.90
16666;DHT22;8446;50.99880500;6.25021400;2024-02-23T08:28:31;6.50;99.90
16666;DHT22;8446;50.99880500;6.25021400;2024-02-23T08:31:03;6.70;99.90
16666;DHT22;8446;50.99880500;6.25021400;2024-02-23T08:33:35;6.80;99.90
16666;DHT22;8446;50.99880500;6.25021400;2024-02-23T08:36:07;6.80;99.90
16666;DHT22;8446;50.99880500;6.25021400;2024-02-23T08:38:39;6.80;99.90
16666;DHT22;8446;50.99880500;6.25021400;2024-02-23T08:41:12;6.90;99.90
16666;DHT22;8446;50.99880500;6.25021400;2024-02-23T08:43:45;7.00;99.90
16666;DHT22;8446;50.99880500;6.25021400;2024-02-23T08:46:17;7.00;99.90
16666;DHT22;8446;50.99880500;6.25021400;2024-02-23T08:48:49;6.90;99.90
16666;DHT22;8446;50.99880500;6.25021400;2024-02-23T08:51:20;6.90;99.90
16666;DHT22;8446;50.99880500;6.25021400;2024-02-23T08:53:52;7.00;99.90
16666;DHT22;8446;50.99880500;6.25021400;2024-02-23T08:56:25;6.90;99.90
16666;DHT22;8446;50.99880500;6.25021400;2024-02-23T08:58:57;6.90;99.90
16666;DHT22;8446;50.99880500;6.25021400;2024-02-23T09:01:29;6.90;99.90
16666;DHT22;8446;50.99880500;6.25021400;2024-02-23T09:04:01;7.20;99.90
16666;DHT22;8446;50.99880500;6.25021400;2024-02-23T09:06:33;7.30;99.90
16666;DHT22;8446;50.99880500;6.25021400;2024-02-23T09:09:05;7.20;99.90
16666;DHT22;8446;50.99880500;6.25021400;2024-02-23T09:11:38;7.30;99.90
16666;DHT22;8446;50.99880500;6.25021400;2024-02-23T09:14:09;7.30;99.90
16666;DHT22;8446;50.99880500;6.25021400;2024-02-23T09:16:41;7.10;99.90
16666;DHT22;8446;50.99880500;6.25021400;2024-02-23T09:19:13;7.20;99.90
16666;DHT22;8446;50.99880500;6.25021400;2024-02-23T09:21:45;7.20;99.90
16666;DHT22;8446;50.99880500;6.25021400;2024-02-23T09:24:17;7.20;99.90
16666;DHT22;8446;50.99880500;6.25021400;2024-02-23T09:26:50;7.30;99.90
16666;DHT22;8446;50.99880500;6.25021400;2024-02-23T09:29:22;7.30;99.90
16666;DHT22;8446;50.99880500;6.25021400;2024-02-23T09:31:54;7.70;99.90
16666;DHT22;8446;50.99880500;6.25021400;2024-02-23T09:34:25;7.50;99.90
16666;DHT22;8446;50.99880500;6.25021400;2024-02-23T09:36:58;7.70;99.90
16666;DHT22;8446;50.99880500;6.25021400;2024-02-23T09:39:29;7.80;99.90
16666;DHT22;8446;50.99880500;6.25021400;2024-02-23T09:42:03;8.00;99.90
16666;DHT22;8446;50.99880500;6.25021400;2024-02-23T09:44:41;8.10;99.90
16666;DHT22;8446;50.99880500;6.25021400;2024-02-23T09:47:14;7.90;99.90
16666;DHT22;8446;50.99880500;6.25021400;2024-02-23T09:49:48;7.90;99.90
16666;DHT22;8446;50.99880500;6.25021400;2024-02-23T09:52:21;7.80;99.90
16666;DHT22;8446;50.99880500;6.25021400;2024-02-23T09:54:53;7.70;99.90
16666;DHT22;8446;50.99880500;6.25021400;2024-02-23T09:57:27;7.70;99.90
16666;DHT22;8446;50.99880500;6.25021400;2024-02-23T09:59:58;7.70;99.90
16666;DHT22;8446;50.99880500;6.25021400;2024-02-23T10:02:34;7.60;99.90
16666;DHT22;8446;50.99880500;6.25021400;2024-02-23T10:05:08;7.50;99.90
16666;DHT22;8446;50.99880500;6.25021400;2024-02-23T10:07:42;7.50;99.90
16666;DHT22;8446;50.99880500;6.25021400;2024-02-23T10:10:14;7.50;99.90
16666;DHT22;8446;50.99880500;6.25021400;2024-02-23T10:12:47;7.50;99.90
16666;DHT22;8446;50.99880500;6.25021400;2024-02-23T10:15:19;7.40;99.90
16666;DHT22;8446;50.99880500;6.25021400;2024-02-23T10:17:51;7.50;99.90
16666;DHT22;8446;50.99880500;6.25021400;2024-02-23T10:20:24;7.50;99.90
16666;DHT22;8446;50.99880500;6.25021400;2024-02-23T10:22:56;7.40;99.90
16666;DHT22;8446;50.99880500;6.25021400;2024-02-23T10:25:28;7.50;99.90
16666;DHT22;8446;50.99880500;6.25021400;2024-02-23T10:28:02;7.50;99.90
16666;DHT22;8446;50.99880500;6.25021400;2024-02-23T10:30:34;7.50;99.90
16666;DHT22;8446;50.99880500;6.25021400;2024-02-23T10:33:10;7.40;99.90
16666;DHT22;8446;50.99880500;6.25021400;2024-02-23T10:35:45;7.50;99.90
16666;DHT22;8446;50.99880500;6.25021400;2024-02-23T10:38:18;7.50;99.90
16666;DHT22;8446;50.99880500;6.25021400;2024-02-23T10:40:53;7.60;99.90
16666;DHT22;8446;50.99880500;6.25021400;2024-02-23T10:43:30;7.70;99.90
16666;DHT22;8446;50.99880500;6.25021400;2024-02-23T10:46:04;7.90;99.90
16666;DHT22;8446;50.99880500;6.25021400;2024-02-23T10:48:39;7.80;99.90
16666;DHT22;8446;50.99880500;6.25021400;2024-02-23T10:51:13;8.00;99.90
16666;DHT22;8446;50.99880500;6.25021400;2024-02-23T10:53:46;8.00;99.90
16666;DHT22;8446;50.99880500;6.25021400;2024-02-23T10:56:20;8.00;99.90
16666;DHT22;8446;50.99880500;6.25021400;2024-02-23T10:58:54;8.00;99.90
16666;DHT22;8446;50.99880500;6.25021400;2024-02-23T11:01:26;7.90;99.90
16666;DHT22;8446;50.99880500;6.25021400;2024-02-23T11:03:58;7.90;99.90
16666;DHT22;8446;50.99880500;6.25021400;2024-02-23T11:06:30;8.00;99.90
16666;DHT22;8446;50.99880500;6.25021400;2024-02-23T11:09:05;8.00;99.90
16666;DHT22;8446;50.99880500;6.25021400;2024-02-23T11:11:38;8.00;99.90
16666;DHT22;8446;50.99880500;6.25021400;2024-02-23T11:14:12;8.00;99.90
16666;DHT22;8446;50.99880500;6.25021400;2024-02-23T11:16:43;8.00;99.90
16666;DHT22;8446;50.99880500;6.25021400;2024-02-23T11:19:15;8.00;99.90
16666;DHT22;8446;50.99880500;6.25021400;2024-02-23T11:21:52;8.00;99.90
16666;DHT22;8446;50.99880500;6.25021400;2024-02-23T11:24:25;8.00;99.90
16666;DHT22;8446;50.99880500;6.25021400;2024-02-23T11:27:00;8.00;99.90
16666;DHT22;8446;50.99880500;6.25021400;2024-02-23T11:29:40;8.00;99.90
16666;DHT22;8446;50.99880500;6.25021400;2024-02-23T11:32:14;8.10;99.90
16666;DHT22;8446;50.99880500;6.25021400;2024-02-23T11:34:54;8.20;99.90
16666;DHT22;8446;50.99880500;6.25021400;2024-02-23T11:37:28;8.20;99.90
16666;DHT22;8446;50.99880500;6.25021400;2024-02-23T11:40:01;8.10;99.90
16666;DHT22;8446;50.99880500;6.25021400;2024-02-23T11:42:35;8.10;99.90
16666;DHT22;8446;50.99880500;6.25021400;2024-02-23T11:45:10;8.00;99.90
16666;DHT22;8446;50.99880500;6.25021400;2024-02-23T11:47:42;7.90;99.90
16666;DHT22;8446;50.99880500;6.25021400;2024-02-23T11:50:14;7.90;99.90
16666;DHT22;8446;50.99880500;6.25021400;2024-02-23T11:52:47;8.00;99.90
16666;DHT22;8446;50.99880500;6.25021400;2024-02-23T11:55:19;8.00;99.90
16666;DHT22;8446;50.99880500;6.25021400;2024-02-23T11:57:52;8.00;99.90
16666;DHT22;8446;50.99880500;6.25021400;2024-02-23T12:00:25;8.20;99.90
16666;DHT22;8446;50.99880500;6.25021400;2024-02-23T12:02:59;8.20;99.90
16666;DHT22;8446;50.99880500;6.25021400;2024-02-23T12:05:32;8.10;99.90
16666;DHT22;8446;50.99880500;6.25021400;2024-02-23T12:08:04;8.10;99.90
16666;DHT22;8446;50.99880500;6.25021400;2024-02-23T12:10:36;8.00;99.90
16666;DHT22;8446;50.99880500;6.25021400;2024-02-23T12:13:08;8.00;99.90
16666;DHT22;8446;50.99880500;6.25021400;2024-02-23T12:15:42;8.00;99.90
16666;DHT22;8446;50.99880500;6.25021400;2024-02-23T12:18:14;8.00;99.90
16666;DHT22;8446;50.99880500;6.25021400;2024-02-23T12:20:47;8.10;99.90
16666;DHT22;8446;50.99880500;6.25021400;2024-02-23T12:23:19;8.20;99.90
16666;DHT22;8446;50.99880500;6.25021400;2024-02-23T12:25:54;8.20;99.90
16666;DHT22;8446;50.99880500;6.25021400;2024-02-23T12:28:27;8.20;99.90
16666;DHT22;8446;50.99880500;6.25021400;2024-02-23T12:31:02;8.20;99.90
16666;DHT22;8446;50.99880500;6.25021400;2024-02-23T12:33:35;8.30;99.90
16666;DHT22;8446;50.99880500;6.25021400;2024-02-23T12:36:08;8.40;99.90
16666;DHT22;8446;50.99880500;6.25021400;2024-02-23T12:38:41;8.40;99.90
16666;DHT22;8446;50.99880500;6.25021400;2024-02-23T12:41:13;8.40;99.90
16666;DHT22;8446;50.99880500;6.25021400;2024-02-23T12:43:44;8.40;99.90
16666;DHT22;8446;50.99880500;6.25021400;2024-02-23T12:46:18;8.40;99.90
16666;DHT22;8446;50.99880500;6.25021400;2024-02-23T12:48:49;8.40;99.90
16666;DHT22;8446;50.99880500;6.25021400;2024-02-23T12:51:25;8.40;99.90
16666;DHT22;8446;50.99880500;6.25021400;2024-02-23T12:53:57;8.50;99.90
16666;DHT22;8446;50.99880500;6.25021400;2024-02-23T12:56:28;8.40;99.90
16666;DHT22;8446;50.99880500;6.25021400;2024-02-23T12:59:01;8.40;99.90
16666;DHT22;8446;50.99880500;6.25021400;2024-02-23T13:01:34;8.50;99.90
16666;DHT22;8446;50.99880500;6.25021400;2024-02-23T13:04:08;8.50;99.90
16666;DHT22;8446;50.99880500;6.25021400;2024-02-23T13:06:41;8.70;99.90
16666;DHT22;8446;50.99880500;6.25021400;2024-02-23T13:09:13;8.80;99.90
16666;DHT22;8446;50.99880500;6.25021400;2024-02-23T13:11:45;8.80;99.90
16666;DHT22;8446;50.99880500;6.25021400;2024-02-23T13:14:18;8.70;99.90
16666;DHT22;8446;50.99880500;6.25021400;2024-02-23T13:16:51;8.80;99.90
16666;DHT22;8446;50.99880500;6.25021400;2024-02-23T13:19:23;9.00;99.90
16666;DHT22;8446;50.99880500;6.25021400;2024-02-23T13:21:55;9.00;99.90
16666;DHT22;8446;50.99880500;6.25021400;2024-02-23T13:24:27;8.90;99.90
16666;DHT22;8446;50.99880500;6.25021400;2024-02-23T13:26:58;8.90;99.90
16666;DHT22;8446;50.99880500;6.25021400;2024-02-23T13:29:30;8.90;99.90
16666;DHT22;8446;50.99880500;6.25021400;2024-02-23T13:32:04;8.80;99.90
16666;DHT22;8446;50.99880500;6.25021400;2024-02-23T13:34:37;8.90;99.90
16666;DHT22;8446;50.99880500;6.25021400;2024-02-23T13:37:09;8.90;99.90
16666;DHT22;8446;50.99880500;6.25021400;2024-02-23T13:39:41;8.90;99.90
16666;DHT22;8446;50.99880500;6.25021400;2024-02-23T13:42:13;8.70;99.90
16666;DHT22;8446;50.99880500;6.25021400;2024-02-23T13:44:45;8.70;99.90
16666;DHT22;8446;50.99880500;6.25021400;2024-02-23T13:47:18;9.00;99.90
16666;DHT22;8446;50.99880500;6.25021400;2024-02-23T13:49:50;9.00;99.90
16666;DHT22;8446;50.99880500;6.25021400;2024-02-23T13:52:22;9.30;99.90
16666;DHT22;8446;50.99880500;6.25021400;2024-02-23T13:54:54;9.70;99.90
16666;DHT22;8446;50.99880500;6.25021400;2024-02-23T13:57:25;9.70;99.90
16666;DHT22;8446;50.99880500;6.25021400;2024-02-23T13:59:57;9.60;99.90
16666;DHT22;8446;50.99880500;6.25021400;2024-02-23T14:02:31;9.60;99.90
16666;DHT22;8446;50.99880500;6.25021400;2024-02-23T14:05:06;9.30;99.90
16666;DHT22;8446;50.99880500;6.25021400;2024-02-23T14:07:38;9.20;99.90
16666;DHT22;8446;50.99880500;6.25021400;2024-02-23T14:10:10;9.20;99.90
16666;DHT22;8446;50.99880500;6.25021400;2024-02-23T14:12:42;9.10;99.90
16666;DHT22;8446;50.99880500;6.25021400;2024-02-23T14:15:14;9.00;99.90